Portada
METAR-TAF:

METAR-TAF

Aeroports :

Nawabshah, Pakistan

latitud: 26-15N, longitud: 068-22E, altitud: 37 m

Observació

L'informe es va fer fa 21 minuts, a les 20:00 UTC
Vent 6 kt del Sud-Oest
Temperatura 23°C
Humitat 44%
Pressió 1011 hPa
Visibilitat: 4000 m
fum

METAR: OPNH 182000Z 23006KT 4000 FU NSC 23/10 Q1011 NOSIG

Hora: 01:21 (20:21 UTC)

Pronòstic

L'informe es va fer fa 4 hores i 21 minuts, a les 16:00 UTC
Pronòstic vàlid del 18 a les 18 UTC al 19 a les 24 UTC
Vent 5 kt del Oest/Sud-Oest
Visibilitat: 3000 m
calitja
Temporalment
l' 19 a les 00 UTC al 19 a les 04 UTC
Vent 5 kt del Sud-Oest
Visibilitat: 2000 m
fum
A partir de les UTC
Vent 5 kt del Sud-Oest amb ràfegues de 15 kt
Visibilitat: 5000 m
calitja
A partir de les UTC
Vent 5 kt del Sud-Oest
Visibilitat: 3000 m
calitja

TAF: OPNH 181600Z 1818/1924 24005KT 3000 HZ NSC TEMPO 1900/1904 22005KT 2000 FU NSC FM 190600Z 23005G15KT 5000 HZ NSC FM 192100Z 23005KT 3000 HZ NSC

Observacions i pronòstics meteorològics de més de 4000 aeroports (METAR i TAF).

Les estacions disponibles són els punts grocs i vermells al mapa.

Posi el ratolí al punt desitjat per veure el nom de l'estació.

Feu clic per veure les observacions i els pronòstics meteorològics.

Per canviar el mapa: feu clic els botons verds amb una creu de color negre per apropar; al botó verd amb un guió per allunyar la imatge; o en les fletxes verdes per a mapes adjacents.


METAR-TAF: